createdAt,value
2022-09-30T00:01:03.533Z,69.87
2022-09-30T00:03:34.255Z,70.23
2022-09-30T00:06:08.970Z,69.98
2022-09-30T00:08:39.189Z,69.77
2022-09-30T00:11:10.976Z,69.16
2022-09-30T00:13:40.167Z,69.14
2022-09-30T00:16:09.957Z,69.71
2022-09-30T00:18:38.087Z,70.26
2022-09-30T00:21:16.044Z,69.59
2022-09-30T00:23:45.059Z,68.55
2022-09-30T00:26:18.419Z,69.33
2022-09-30T00:28:52.897Z,68.84
2022-09-30T00:31:22.808Z,68.34
2022-09-30T00:34:07.347Z,69.01
2022-09-30T00:36:47.352Z,69.21
2022-09-30T00:39:22.010Z,69.33
2022-09-30T00:41:56.343Z,69.42
2022-09-30T00:45:05.395Z,69.45
2022-09-30T00:47:43.672Z,70.02
2022-09-30T00:50:32.352Z,69.39
2022-09-30T00:53:30.851Z,70.47
2022-09-30T00:56:05.533Z,70.96
2022-09-30T00:58:41.195Z,70.97
2022-09-30T01:01:10.155Z,73.09
2022-09-30T01:03:48.672Z,75.05
2022-09-30T01:06:22.013Z,74.78
2022-09-30T01:08:53.260Z,75.11
2022-09-30T01:11:21.209Z,75.91
2022-09-30T01:13:53.097Z,73.64
2022-09-30T01:16:30.760Z,74.14
2022-09-30T01:19:35.535Z,72.95
2022-09-30T01:22:26.443Z,73.66
2022-09-30T01:24:54.415Z,72.01
2022-09-30T01:27:31.532Z,71.63
2022-09-30T01:30:22.847Z,71.26
2022-09-30T01:33:02.989Z,71.04
2022-09-30T01:35:43.020Z,71.18
2022-09-30T01:38:45.314Z,71.41
2022-09-30T01:41:18.303Z,72.31
2022-09-30T01:44:04.558Z,72.89
2022-09-30T01:46:44.339Z,72.76
2022-09-30T01:49:27.207Z,71.94
2022-09-30T01:52:19.284Z,71.46
2022-09-30T01:55:09.201Z,70.96
2022-09-30T01:57:46.174Z,71.41
2022-09-30T02:00:17.891Z,70.52
2022-09-30T02:03:16.872Z,71.52
2022-09-30T02:05:56.032Z,70.92
2022-09-30T02:08:34.388Z,71.79
2022-09-30T02:11:13.130Z,71.28
2022-09-30T02:13:50.283Z,71.11
2022-09-30T02:16:26.114Z,70.60
2022-09-30T02:18:58.186Z,70.66
2022-09-30T02:21:33.182Z,70.84
2022-09-30T02:24:06.176Z,72.25
2022-09-30T02:26:38.214Z,71.89
2022-09-30T02:29:20.145Z,71.18
2022-09-30T02:31:59.129Z,71.33
2022-09-30T02:34:38.048Z,70.44
2022-09-30T02:37:17.755Z,71.21
2022-09-30T02:40:13.186Z,71.79
2022-09-30T02:42:42.080Z,72.50
2022-09-30T02:45:12.614Z,71.37
2022-09-30T02:47:46.272Z,71.85
2022-09-30T02:50:31.738Z,70.97
2022-09-30T02:53:08.346Z,71.02
2022-09-30T02:56:20.226Z,71.01
2022-09-30T02:58:53.175Z,71.12
2022-09-30T03:01:21.244Z,70.15
2022-09-30T03:04:01.852Z,71.61
2022-09-30T03:06:31.047Z,72.22
2022-09-30T03:09:01.545Z,71.32
2022-09-30T03:11:30.612Z,70.80
2022-09-30T03:14:43.247Z,72.14
2022-09-30T03:17:50.082Z,71.63
2022-09-30T03:20:33.944Z,71.03
2022-09-30T03:23:17.226Z,74.01
2022-09-30T03:26:17.346Z,73.33
2022-09-30T03:29:04.059Z,72.17
2022-09-30T03:32:09.772Z,71.70
2022-09-30T03:35:04.286Z,73.10
2022-09-30T03:37:35.695Z,72.04
2022-09-30T03:40:11.947Z,71.88
2022-09-30T03:42:45.965Z,71.92
2022-09-30T03:45:35.297Z,71.49
2022-09-30T03:48:07.221Z,71.51
2022-09-30T03:50:40.039Z,73.06
2022-09-30T03:53:13.248Z,71.37
2022-09-30T03:55:51.073Z,71.67
2022-09-30T03:58:23.611Z,72.69
2022-09-30T04:00:54.607Z,72.11
2022-09-30T04:03:33.474Z,72.15
2022-09-30T04:06:03.743Z,71.65
2022-09-30T04:08:35.004Z,72.19
2022-09-30T04:11:07.296Z,72.13
2022-09-30T04:13:35.386Z,70.44
2022-09-30T04:16:05.405Z,71.56
2022-09-30T04:18:38.637Z,70.22
2022-09-30T04:21:12.815Z,71.40
2022-09-30T04:23:42.229Z,71.34
2022-09-30T04:26:20.504Z,70.88
2022-09-30T04:28:49.322Z,69.25
2022-09-30T04:31:21.709Z,70.89
2022-09-30T04:33:52.882Z,71.34
2022-09-30T04:36:21.317Z,70.84
2022-09-30T04:38:50.098Z,70.49
2022-09-30T04:41:18.902Z,69.91
2022-09-30T04:43:51.982Z,71.51
2022-09-30T04:46:23.347Z,71.06
2022-09-30T04:48:55.370Z,70.26
2022-09-30T04:51:30.179Z,70.45
2022-09-30T04:53:59.289Z,70.59
2022-09-30T04:56:27.174Z,70.79
2022-09-30T04:58:54.996Z,70.81
2022-09-30T05:01:25.058Z,69.87
2022-09-30T05:03:55.001Z,70.63
2022-09-30T05:06:30.710Z,70.65
2022-09-30T05:09:13.123Z,71.10
2022-09-30T05:11:50.038Z,71.11
2022-09-30T05:14:22.481Z,70.13
2022-09-30T05:16:59.847Z,70.85
2022-09-30T05:19:28.392Z,69.86
2022-09-30T05:21:56.958Z,70.63
2022-09-30T05:24:30.293Z,71.18
2022-09-30T05:26:59.421Z,70.28
2022-09-30T05:29:32.113Z,70.41
2022-09-30T05:32:01.338Z,71.30
2022-09-30T05:34:30.616Z,71.01
2022-09-30T05:36:58.841Z,71.03
2022-09-30T05:39:30.059Z,71.86
2022-09-30T05:41:59.409Z,70.87
2022-09-30T05:44:27.919Z,71.81
2022-09-30T05:46:56.501Z,72.21
2022-09-30T05:49:27.578Z,71.84
2022-09-30T05:52:02.712Z,72.22
2022-09-30T05:54:30.746Z,71.92
2022-09-30T05:57:03.013Z,72.25
2022-09-30T05:59:33.771Z,71.97
2022-09-30T06:02:10.043Z,71.64
2022-09-30T06:04:38.746Z,71.61
2022-09-30T06:07:10.474Z,71.52
2022-09-30T06:09:40.420Z,71.82
2022-09-30T06:12:16.913Z,72.05
2022-09-30T06:14:46.283Z,71.12
2022-09-30T06:17:14.149Z,71.16
2022-09-30T06:19:42.592Z,71.29
2022-09-30T06:22:11.080Z,70.92
2022-09-30T06:24:46.006Z,70.61
2022-09-30T06:27:16.728Z,71.03
2022-09-30T06:29:48.472Z,71.13
2022-09-30T06:32:20.372Z,70.62
2022-09-30T06:34:51.356Z,71.09
2022-09-30T06:37:19.801Z,71.20
2022-09-30T06:39:47.927Z,71.79
2022-09-30T06:42:18.015Z,70.87
2022-09-30T06:44:53.611Z,70.63
2022-09-30T06:47:26.101Z,70.08
2022-09-30T06:49:59.249Z,71.56
2022-09-30T06:52:27.761Z,71.23
2022-09-30T06:54:59.691Z,70.77
2022-09-30T06:57:28.116Z,70.83
2022-09-30T06:59:56.918Z,70.56
2022-09-30T07:02:25.061Z,70.93
2022-09-30T07:04:53.634Z,70.69
2022-09-30T07:07:22.477Z,70.41
2022-09-30T07:09:56.379Z,69.81
2022-09-30T07:12:42.812Z,70.08
2022-09-30T07:15:14.077Z,70.04
2022-09-30T07:17:42.376Z,70.37
2022-09-30T07:20:10.676Z,70.62
2022-09-30T07:22:39.622Z,70.85
2022-09-30T07:25:12.716Z,70.82
2022-09-30T07:27:41.497Z,70.54
2022-09-30T07:30:15.150Z,70.40
2022-09-30T07:32:50.270Z,69.81
2022-09-30T07:35:21.563Z,70.08
2022-09-30T07:38:01.284Z,69.84
2022-09-30T07:40:31.951Z,70.05
2022-09-30T07:43:00.690Z,69.17
2022-09-30T07:45:31.542Z,69.56
2022-09-30T07:47:59.636Z,70.19
2022-09-30T07:50:29.798Z,70.06
2022-09-30T07:53:00.661Z,69.87
2022-09-30T07:55:40.574Z,70.41
2022-09-30T07:58:11.430Z,70.10
2022-09-30T08:00:42.846Z,69.91
2022-09-30T08:03:11.843Z,69.42
2022-09-30T08:05:41.744Z,69.88
2022-09-30T08:08:13.705Z,69.00
2022-09-30T08:10:54.354Z,69.24
2022-09-30T08:13:25.374Z,69.85
2022-09-30T08:15:53.433Z,69.81
2022-09-30T08:18:29.199Z,69.71
2022-09-30T08:21:04.773Z,69.12
2022-09-30T08:23:34.271Z,69.99
2022-09-30T08:26:07.673Z,69.86
2022-09-30T08:28:38.969Z,69.51
2022-09-30T08:31:20.238Z,71.72
2022-09-30T08:36:49.087Z,71.21
2022-09-30T08:39:23.698Z,72.01
2022-09-30T08:42:42.432Z,72.14
2022-09-30T08:45:31.780Z,72.69
2022-09-30T08:48:11.183Z,72.78
2022-09-30T08:50:51.640Z,72.50
2022-09-30T08:53:33.195Z,72.02
2022-09-30T08:56:06.310Z,72.18
2022-09-30T08:58:41.998Z,72.74
2022-09-30T09:01:35.844Z,73.06
2022-09-30T09:04:09.559Z,73.17
2022-09-30T09:06:47.295Z,75.22
2022-09-30T09:09:30.503Z,73.43
2022-09-30T09:12:09.024Z,74.06
2022-09-30T09:15:00.703Z,74.78
2022-09-30T09:17:35.378Z,73.91
2022-09-30T09:20:14.919Z,75.16
2022-09-30T09:22:44.657Z,73.44
2022-09-30T09:25:16.817Z,73.64
2022-09-30T09:28:07.428Z,74.27
2022-09-30T09:30:47.439Z,74.66
2022-09-30T09:33:23.346Z,73.86
2022-09-30T09:36:28.637Z,73.02
2022-09-30T09:39:26.513Z,76.00
2022-09-30T09:42:17.382Z,75.97
2022-09-30T09:45:03.365Z,75.57
2022-09-30T09:47:32.415Z,74.76
2022-09-30T09:50:04.761Z,75.83
2022-09-30T09:52:58.596Z,74.64
2022-09-30T09:55:28.139Z,73.54
2022-09-30T09:58:14.102Z,73.42
2022-09-30T10:00:51.287Z,72.46
2022-09-30T10:03:25.828Z,73.46
2022-09-30T10:06:15.441Z,72.31
2022-09-30T10:08:56.003Z,73.18
2022-09-30T10:11:31.302Z,74.91
2022-09-30T10:14:01.611Z,73.40
2022-09-30T10:16:41.838Z,73.09
2022-09-30T10:19:27.386Z,72.21
2022-09-30T10:22:28.488Z,74.55
2022-09-30T10:25:14.979Z,76.48
2022-09-30T10:27:52.827Z,73.36
2022-09-30T10:30:41.311Z,72.75
2022-09-30T10:33:34.535Z,76.12
2022-09-30T10:36:14.578Z,77.62
2022-09-30T10:39:02.520Z,75.66
2022-09-30T10:41:39.346Z,74.62
2022-09-30T10:44:17.977Z,74.44
2022-09-30T10:46:48.844Z,74.60
2022-09-30T10:49:31.645Z,72.92
2022-09-30T10:52:01.726Z,72.99
2022-09-30T10:54:40.626Z,72.29
2022-09-30T10:57:24.542Z,73.02
2022-09-30T11:00:20.410Z,72.22
2022-09-30T11:02:59.381Z,72.65
2022-09-30T11:05:41.246Z,72.76
2022-09-30T11:08:22.910Z,74.71
2022-09-30T11:11:14.716Z,73.71
2022-09-30T11:14:23.678Z,74.69
2022-09-30T11:17:31.861Z,75.62
2022-09-30T11:20:16.622Z,73.98
2022-09-30T11:22:54.521Z,72.44
2022-09-30T11:25:33.749Z,71.79
2022-09-30T11:28:09.859Z,72.73
2022-09-30T11:31:07.253Z,68.70
2022-09-30T11:34:00.221Z,70.32
2022-09-30T11:36:28.297Z,71.77
2022-09-30T11:39:18.296Z,69.91
2022-09-30T11:42:04.059Z,68.04
2022-09-30T11:44:41.673Z,67.71
2022-09-30T11:47:38.020Z,68.92
2022-09-30T11:50:28.309Z,68.19
2022-09-30T11:53:15.336Z,68.27
2022-09-30T11:56:07.259Z,67.84
2022-09-30T11:58:42.174Z,69.94
2022-09-30T12:01:21.285Z,67.77
2022-09-30T12:03:57.829Z,67.51
2022-09-30T12:06:32.114Z,68.87
2022-09-30T12:09:08.475Z,67.94
2022-09-30T12:11:42.544Z,66.74
2022-09-30T12:14:23.699Z,66.47
2022-09-30T12:16:51.840Z,65.77
2022-09-30T12:19:28.127Z,67.48
2022-09-30T12:22:01.324Z,65.87
2022-09-30T12:24:40.703Z,65.31
2022-09-30T12:27:16.079Z,68.48
2022-09-30T12:30:18.898Z,65.04
2022-09-30T12:33:05.746Z,66.82
2022-09-30T12:36:09.307Z,65.91
2022-09-30T12:38:50.330Z,65.43
2022-09-30T12:41:40.941Z,63.35
2022-09-30T12:44:46.385Z,63.80
2022-09-30T12:47:46.039Z,64.03
2022-09-30T12:50:24.033Z,66.12
2022-09-30T12:52:54.278Z,62.85
2022-09-30T12:55:32.340Z,62.75
2022-09-30T12:58:04.160Z,62.02
2022-09-30T13:00:38.196Z,61.41
2022-09-30T13:03:18.564Z,61.74
2022-09-30T13:06:11.966Z,62.16
2022-09-30T13:08:52.315Z,62.27
2022-09-30T13:11:42.226Z,62.70
2022-09-30T13:14:35.269Z,61.65
2022-09-30T13:17:12.397Z,63.19
2022-09-30T13:19:48.329Z,65.16
2022-09-30T13:22:24.326Z,66.65
2022-09-30T13:25:03.469Z,65.10
2022-09-30T13:27:39.486Z,64.16
2022-09-30T13:30:17.848Z,64.00
2022-09-30T13:32:51.295Z,63.54
2022-09-30T13:35:46.729Z,63.22
2022-09-30T13:38:15.887Z,66.20
2022-09-30T13:41:01.748Z,64.39
2022-09-30T13:43:40.036Z,62.33
2022-09-30T13:46:28.769Z,63.13
2022-09-30T13:49:35.967Z,62.50
2022-09-30T13:52:16.409Z,61.90
2022-09-30T13:55:15.756Z,63.08
2022-09-30T13:58:07.591Z,59.88
2022-09-30T14:01:06.938Z,59.62
2022-09-30T14:04:02.223Z,59.90
2022-09-30T14:06:56.731Z,59.95
2022-09-30T14:09:32.696Z,60.15
2022-09-30T14:12:20.181Z,60.10
2022-09-30T14:15:12.837Z,59.06
2022-09-30T14:18:18.705Z,59.14
2022-09-30T14:21:22.976Z,58.62
2022-09-30T14:24:24.280Z,60.15
2022-09-30T14:27:31.287Z,60.38
2022-09-30T14:30:21.364Z,60.03
2022-09-30T14:32:56.177Z,60.31
2022-09-30T14:35:29.282Z,62.50
2022-09-30T14:38:01.113Z,60.91
2022-09-30T14:40:35.042Z,64.23
2022-09-30T14:43:13.285Z,62.16
2022-09-30T14:45:45.637Z,61.90
2022-09-30T14:48:21.898Z,61.50
2022-09-30T14:50:58.233Z,63.12
2022-09-30T14:53:38.934Z,62.78
2022-09-30T14:56:23.669Z,62.80
2022-09-30T14:58:53.305Z,62.24
2022-09-30T15:01:23.726Z,64.08
2022-09-30T15:04:10.777Z,62.05
2022-09-30T15:06:48.037Z,64.16
2022-09-30T15:09:18.183Z,64.14
2022-09-30T15:11:47.282Z,63.26
2022-09-30T15:14:21.160Z,62.96
2022-09-30T15:16:55.053Z,64.67
2022-09-30T15:19:26.488Z,63.61
2022-09-30T15:21:59.127Z,64.12
2022-09-30T15:24:32.038Z,65.81
2022-09-30T15:27:04.801Z,65.48
2022-09-30T15:29:33.123Z,64.92
2022-09-30T15:32:23.263Z,64.09
2022-09-30T15:35:16.058Z,65.33
2022-09-30T15:37:46.179Z,64.42
2022-09-30T15:40:33.779Z,63.42
2022-09-30T15:43:07.090Z,64.82
2022-09-30T15:45:41.150Z,65.67
2022-09-30T15:48:27.765Z,66.44
2022-09-30T15:51:06.194Z,65.56
2022-09-30T15:53:45.494Z,65.31
2022-09-30T15:56:35.758Z,64.57
2022-09-30T15:59:13.344Z,64.33
2022-09-30T16:01:51.305Z,69.45
2022-09-30T16:04:31.916Z,68.45
2022-09-30T16:07:13.544Z,67.41
2022-09-30T16:09:41.880Z,67.14
2022-09-30T16:12:23.148Z,65.71
2022-09-30T16:14:53.937Z,67.97
2022-09-30T16:17:34.172Z,67.88
2022-09-30T16:20:08.495Z,66.51
2022-09-30T16:22:42.794Z,67.79
2022-09-30T16:25:30.871Z,68.42
2022-09-30T16:28:12.612Z,68.71
2022-09-30T16:30:44.046Z,68.41
2022-09-30T16:33:14.942Z,69.53
2022-09-30T16:35:56.936Z,69.95
2022-09-30T16:38:25.583Z,69.17
2022-09-30T16:40:55.912Z,70.16
2022-09-30T16:43:29.343Z,68.34
2022-09-30T16:46:02.836Z,67.39
2022-09-30T16:48:32.230Z,66.73
2022-09-30T16:51:16.029Z,67.98
2022-09-30T16:53:48.242Z,69.00
2022-09-30T16:56:27.389Z,69.33
2022-09-30T16:59:07.865Z,67.94
2022-09-30T17:01:37.174Z,68.99
2022-09-30T17:04:12.966Z,69.48
2022-09-30T17:06:47.781Z,72.06
2022-09-30T17:09:16.071Z,70.76
2022-09-30T17:11:50.055Z,68.89
2022-09-30T17:14:18.135Z,68.45
2022-09-30T17:16:47.247Z,69.28
2022-09-30T17:19:30.716Z,72.67
2022-09-30T17:22:05.037Z,75.18
2022-09-30T17:24:36.885Z,71.99
2022-09-30T17:27:06.972Z,71.02
2022-09-30T17:29:47.989Z,69.80
2022-09-30T17:32:25.947Z,70.96
2022-09-30T17:34:56.130Z,73.35
2022-09-30T17:37:28.544Z,74.63
2022-09-30T17:39:59.189Z,75.00
2022-09-30T17:42:46.835Z,74.33
2022-09-30T17:45:21.279Z,74.35
2022-09-30T17:47:50.403Z,74.05
2022-09-30T17:50:22.420Z,71.93
2022-09-30T17:52:52.549Z,74.43
2022-09-30T17:55:22.624Z,73.92
2022-09-30T17:57:54.686Z,73.24
2022-09-30T18:00:25.801Z,74.33
2022-09-30T18:02:55.242Z,75.98
2022-09-30T18:05:25.874Z,72.41
2022-09-30T18:07:54.738Z,71.60
2022-09-30T18:10:26.470Z,72.65
2022-09-30T18:12:55.800Z,74.38
2022-09-30T18:15:31.056Z,73.34
2022-09-30T18:18:00.848Z,70.65
2022-09-30T18:20:33.420Z,70.95
2022-09-30T18:23:02.973Z,70.53
2022-09-30T18:25:37.838Z,69.99
2022-09-30T18:28:12.945Z,71.07
2022-09-30T18:30:46.954Z,72.82
2022-09-30T18:33:17.627Z,73.96
2022-09-30T18:35:46.723Z,75.79
2022-09-30T18:38:15.167Z,73.16
2022-09-30T18:40:44.195Z,71.89
2022-09-30T18:43:15.311Z,72.12
2022-09-30T18:45:43.974Z,73.04
2022-09-30T18:48:13.634Z,71.20
2022-09-30T18:50:51.541Z,70.73
2022-09-30T18:53:21.270Z,69.08
2022-09-30T18:55:49.589Z,69.08
2022-09-30T18:58:30.916Z,68.69
2022-09-30T19:01:08.559Z,68.68
2022-09-30T19:03:43.365Z,68.61
2022-09-30T19:06:22.070Z,69.26
2022-09-30T19:08:51.210Z,68.14
2022-09-30T19:11:31.056Z,68.52
2022-09-30T19:14:11.178Z,68.31
2022-09-30T19:16:52.706Z,71.23
2022-09-30T19:19:39.500Z,71.01
2022-09-30T19:22:25.794Z,69.61
2022-09-30T19:25:12.211Z,69.96
2022-09-30T19:27:43.325Z,70.11
2022-09-30T19:30:19.572Z,68.75
2022-09-30T19:33:00.324Z,68.95
2022-09-30T19:35:39.499Z,69.33
2022-09-30T19:38:14.499Z,69.12
2022-09-30T19:41:04.906Z,70.64
2022-09-30T19:43:34.545Z,68.99
2022-09-30T19:46:05.860Z,70.24
2022-09-30T19:48:39.958Z,72.65
2022-09-30T19:51:14.957Z,73.14
2022-09-30T19:54:06.095Z,71.95
2022-09-30T19:56:46.681Z,70.43
2022-09-30T19:59:19.722Z,69.35
2022-09-30T20:01:53.053Z,69.10
2022-09-30T20:04:27.572Z,69.08
2022-09-30T20:06:59.425Z,69.01
2022-09-30T20:09:37.667Z,69.96
2022-09-30T20:12:09.153Z,70.86
2022-09-30T20:15:06.416Z,69.54
2022-09-30T20:17:44.249Z,68.76
2022-09-30T20:20:43.668Z,68.82
2022-09-30T20:23:23.515Z,68.84
2022-09-30T20:26:04.455Z,70.92
2022-09-30T20:28:33.103Z,72.30
2022-09-30T20:31:16.937Z,71.94
2022-09-30T20:34:03.679Z,69.68
2022-09-30T20:36:37.067Z,68.64
2022-09-30T20:39:06.981Z,68.45
2022-09-30T20:41:45.867Z,68.59
2022-09-30T20:44:14.272Z,67.77
2022-09-30T20:46:46.018Z,67.71
2022-09-30T20:49:21.222Z,67.34
2022-09-30T20:51:54.122Z,68.23
2022-09-30T20:54:23.099Z,67.85
2022-09-30T20:57:07.131Z,67.65
2022-09-30T20:59:38.900Z,70.67
2022-09-30T21:02:07.633Z,69.63
2022-09-30T21:04:36.106Z,68.45
2022-09-30T21:07:04.200Z,68.63
2022-09-30T21:09:35.090Z,68.42
2022-09-30T21:12:08.608Z,69.29
2022-09-30T21:14:40.467Z,68.95
2022-09-30T21:17:08.861Z,68.85
2022-09-30T21:19:38.316Z,68.25
2022-09-30T21:22:17.432Z,68.33
2022-09-30T21:24:49.989Z,68.51
2022-09-30T21:27:18.721Z,68.48
2022-09-30T21:29:50.460Z,68.21
2022-09-30T21:32:21.075Z,71.03
2022-09-30T21:34:48.948Z,69.36
2022-09-30T21:37:17.099Z,68.98
2022-09-30T21:39:48.444Z,70.93
2022-09-30T21:42:16.674Z,71.56
2022-09-30T21:44:45.498Z,69.98
2022-09-30T21:47:17.146Z,69.43
2022-09-30T21:49:45.366Z,70.19
2022-09-30T21:52:13.611Z,69.61
2022-09-30T21:54:41.739Z,72.88
2022-09-30T21:57:09.344Z,73.17
2022-09-30T21:59:38.793Z,76.52
2022-09-30T22:02:06.609Z,73.79
2022-09-30T22:04:42.117Z,75.22
2022-09-30T22:07:09.956Z,74.70
2022-09-30T22:09:42.976Z,72.46
2022-09-30T22:12:14.768Z,71.68
2022-09-30T22:14:44.737Z,71.86
2022-09-30T22:17:15.924Z,70.96
2022-09-30T22:19:46.526Z,71.15
2022-09-30T22:22:14.146Z,70.97
2022-09-30T22:24:44.280Z,70.72
2022-09-30T22:27:17.607Z,70.08
2022-09-30T22:29:45.545Z,69.80
2022-09-30T22:32:13.851Z,69.51
2022-09-30T22:35:02.596Z,71.81
2022-09-30T22:37:49.473Z,70.71
2022-09-30T22:40:17.487Z,72.04
2022-09-30T22:42:47.991Z,71.43
2022-09-30T22:45:20.220Z,72.55
2022-09-30T22:47:47.857Z,71.97
2022-09-30T22:50:19.696Z,73.08
2022-09-30T22:52:48.591Z,75.45
2022-09-30T22:55:16.903Z,75.55
2022-09-30T22:57:44.325Z,76.59
2022-09-30T23:00:20.485Z,76.20
2022-09-30T23:02:50.761Z,76.66
2022-09-30T23:05:21.040Z,74.29
2022-09-30T23:07:48.806Z,73.44
2022-09-30T23:10:25.372Z,75.12
2022-09-30T23:12:53.422Z,73.82
2022-09-30T23:15:20.810Z,73.00
2022-09-30T23:17:48.375Z,71.51
2022-09-30T23:20:16.332Z,70.86
2022-09-30T23:22:44.040Z,71.19
2022-09-30T23:25:26.384Z,71.82
2022-09-30T23:27:54.032Z,70.26
2022-09-30T23:30:21.414Z,70.80
2022-09-30T23:32:56.503Z,69.33
2022-09-30T23:35:26.750Z,70.41
2022-09-30T23:37:54.397Z,70.53
2022-09-30T23:40:24.092Z,70.99
2022-09-30T23:42:51.751Z,70.38
2022-09-30T23:45:19.703Z,69.83
2022-09-30T23:47:48.371Z,71.75
2022-09-30T23:50:16.369Z,70.03
2022-09-30T23:52:44.363Z,69.67
2022-09-30T23:55:11.727Z,69.97
2022-09-30T23:57:39.947Z,69.67
